createdAt,value
2017-08-09T00:00:16.343Z,70.4
2017-08-09T00:01:17.003Z,70.4
2017-08-09T00:02:17.659Z,70.8
2017-08-09T00:03:18.315Z,70.8
2017-08-09T00:04:18.971Z,70.3
2017-08-09T00:05:19.877Z,70.8
2017-08-09T00:06:20.534Z,70.6
2017-08-09T00:07:21.192Z,71.0
2017-08-09T00:08:21.846Z,71.1
2017-08-09T00:09:22.504Z,71.9
2017-08-09T00:10:23.407Z,71.5
2017-08-09T00:11:24.063Z,72.3
2017-08-09T00:12:24.719Z,71.5
2017-08-09T00:13:25.376Z,72.0
2017-08-09T00:14:26.031Z,72.0
2017-08-09T00:15:26.937Z,72.1
2017-08-09T00:16:27.594Z,71.9
2017-08-09T00:17:28.248Z,72.2
2017-08-09T00:18:28.904Z,72.0
2017-08-09T00:19:29.561Z,72.7
2017-08-09T00:20:30.554Z,72.3
2017-08-09T00:21:31.210Z,72.3
2017-08-09T00:22:31.866Z,72.1
2017-08-09T00:23:32.522Z,72.3
2017-08-09T00:24:33.177Z,72.1
2017-08-09T00:25:34.085Z,72.4
2017-08-09T00:26:34.741Z,72.3
2017-08-09T00:27:35.395Z,72.4
2017-08-09T00:28:36.052Z,73.0
2017-08-09T00:29:36.708Z,72.3
2017-08-09T00:30:37.614Z,72.3
2017-08-09T00:31:38.274Z,72.3
2017-08-09T00:32:38.927Z,72.1
2017-08-09T00:33:39.585Z,72.9
2017-08-09T00:34:40.241Z,72.9
2017-08-09T00:35:41.145Z,72.5
2017-08-09T00:36:41.802Z,72.6
2017-08-09T00:37:42.460Z,72.5
2017-08-09T00:38:43.121Z,72.7
2017-08-09T00:39:43.771Z,72.9
2017-08-09T00:40:44.727Z,72.5
2017-08-09T00:41:45.385Z,73.2
2017-08-09T00:42:46.040Z,72.6
2017-08-09T00:43:46.696Z,73.4
2017-08-09T00:44:47.351Z,73.0
2017-08-09T00:45:48.257Z,73.2
2017-08-09T00:46:48.911Z,73.5
2017-08-09T00:47:49.568Z,73.7
2017-08-09T00:48:50.260Z,73.3
2017-08-09T00:49:50.915Z,73.6
2017-08-09T00:50:51.870Z,73.8
2017-08-09T00:51:52.527Z,73.8
2017-08-09T00:52:53.182Z,73.9
2017-08-09T00:53:53.838Z,73.6
2017-08-09T00:54:54.503Z,74.2
2017-08-09T00:55:55.397Z,74.0
2017-08-09T00:56:56.052Z,74.1
2017-08-09T00:57:56.707Z,74.4
2017-08-09T00:58:57.364Z,74.2
2017-08-09T00:59:58.018Z,74.4
2017-08-09T01:00:58.929Z,74.1
2017-08-09T01:01:59.584Z,74.1
2017-08-09T01:03:00.241Z,73.9
2017-08-09T01:04:00.895Z,74.2
2017-08-09T01:05:01.563Z,74.1
2017-08-09T01:06:02.513Z,74.2
2017-08-09T01:07:03.168Z,74.6
2017-08-09T01:08:03.824Z,74.9
2017-08-09T01:09:04.478Z,75.0
2017-08-09T01:10:05.134Z,74.8
2017-08-09T01:11:06.038Z,75.2
2017-08-09T01:12:06.699Z,75.0
2017-08-09T01:13:07.356Z,75.1
2017-08-09T01:14:08.010Z,75.0
2017-08-09T01:15:08.666Z,75.7
2017-08-09T01:16:09.623Z,75.6
2017-08-09T01:17:10.277Z,75.6
2017-08-09T01:18:10.932Z,75.8
2017-08-09T01:19:11.591Z,76.3
2017-08-09T01:20:12.278Z,76.3
2017-08-09T01:21:13.185Z,76.3
2017-08-09T01:22:13.841Z,77.2
2017-08-09T01:23:14.496Z,77.0
2017-08-09T01:24:15.150Z,77.1
2017-08-09T01:25:15.805Z,76.9
2017-08-09T01:26:16.760Z,77.2
2017-08-09T01:27:17.417Z,77.0
2017-08-09T01:28:18.072Z,76.9
2017-08-09T01:29:18.734Z,77.1
2017-08-09T01:30:19.388Z,78.1
2017-08-09T01:31:20.293Z,77.9
2017-08-09T01:32:20.952Z,78.1
2017-08-09T01:33:21.606Z,77.7
2017-08-09T01:34:22.297Z,78.3
2017-08-09T01:35:22.950Z,78.1
2017-08-09T01:36:23.857Z,78.0
2017-08-09T01:37:24.512Z,78.2
2017-08-09T01:38:25.168Z,78.1
2017-08-09T01:39:25.823Z,78.1
2017-08-09T01:40:26.479Z,78.8
2017-08-09T01:41:27.433Z,78.5
2017-08-09T01:42:28.088Z,78.7
2017-08-09T01:43:28.743Z,78.2
2017-08-09T01:44:29.403Z,78.4
2017-08-09T01:45:30.051Z,78.6
2017-08-09T01:46:31.005Z,78.8
2017-08-09T01:47:31.662Z,78.3
2017-08-09T01:48:32.315Z,78.5
2017-08-09T01:49:32.969Z,78.5
2017-08-09T01:50:33.624Z,78.8
2017-08-09T01:51:34.530Z,78.6
2017-08-09T01:52:35.185Z,78.7
2017-08-09T01:53:35.841Z,78.8
2017-08-09T01:54:36.496Z,78.8
2017-08-09T01:55:37.150Z,78.1
2017-08-09T01:56:38.108Z,78.2
2017-08-09T01:57:38.761Z,78.8
2017-08-09T01:58:39.417Z,78.5
2017-08-09T01:59:40.072Z,78.6
2017-08-09T02:00:40.725Z,78.2
2017-08-09T02:01:41.680Z,78.2
2017-08-09T02:02:42.334Z,78.7
2017-08-09T02:03:42.988Z,78.7
2017-08-09T02:04:43.642Z,79.2
2017-08-09T02:05:44.297Z,79.3
2017-08-09T02:06:45.201Z,79.5
2017-08-09T02:07:45.857Z,80.0
2017-08-09T02:08:46.512Z,80.0
2017-08-09T02:09:47.165Z,79.6
2017-08-09T02:10:47.820Z,79.8
2017-08-09T02:11:48.725Z,79.7
2017-08-09T02:12:49.379Z,79.8
2017-08-09T02:13:50.035Z,79.9
2017-08-09T02:14:50.690Z,79.9
2017-08-09T02:15:51.347Z,80.0
2017-08-09T02:16:52.300Z,80.5
2017-08-09T02:17:52.953Z,80.4
2017-08-09T02:18:53.608Z,80.6
2017-08-09T02:19:54.263Z,80.2
2017-08-09T02:20:54.918Z,80.4
2017-08-09T02:21:55.825Z,80.6
2017-08-09T02:22:56.479Z,80.5
2017-08-09T02:23:57.132Z,80.9
2017-08-09T02:24:57.788Z,81.0
2017-08-09T02:25:58.441Z,81.0
2017-08-09T02:26:59.396Z,81.0
2017-08-09T02:28:00.051Z,81.6
2017-08-09T02:29:00.705Z,81.6
2017-08-09T02:30:01.360Z,81.6
2017-08-09T02:31:02.016Z,81.4
2017-08-09T02:32:02.970Z,81.7
2017-08-09T02:33:03.624Z,81.3
2017-08-09T02:34:04.280Z,81.8
2017-08-09T02:35:04.932Z,81.7
2017-08-09T02:36:05.588Z,82.0
2017-08-09T02:37:06.492Z,81.7
2017-08-09T02:38:07.145Z,81.9
2017-08-09T02:39:07.800Z,82.0
2017-08-09T02:40:08.457Z,82.5
2017-08-09T02:41:09.111Z,82.4
2017-08-09T02:42:10.022Z,82.2
2017-08-09T02:43:10.677Z,82.2
2017-08-09T02:44:11.330Z,82.5
2017-08-09T02:45:11.984Z,82.7
2017-08-09T02:46:12.639Z,82.6
2017-08-09T02:47:13.594Z,83.3
2017-08-09T02:48:14.248Z,83.1
2017-08-09T02:49:14.902Z,83.6
2017-08-09T02:50:15.563Z,83.2
2017-08-09T02:51:16.249Z,83.2
2017-08-09T02:52:17.204Z,83.7
2017-08-09T02:53:17.893Z,84.1
2017-08-09T02:54:18.548Z,83.7
2017-08-09T02:55:19.202Z,83.6
2017-08-09T02:56:19.856Z,84.1
2017-08-09T02:57:20.771Z,84.4
2017-08-09T02:58:21.425Z,83.8
2017-08-09T02:59:22.081Z,83.9
2017-08-09T03:00:22.734Z,84.7
2017-08-09T03:01:23.389Z,84.6
2017-08-09T03:02:24.382Z,84.8
2017-08-09T03:03:25.036Z,85.1
2017-08-09T03:04:25.692Z,84.7
2017-08-09T03:05:26.349Z,85.0
2017-08-09T03:06:27.002Z,85.0
2017-08-09T03:07:27.908Z,85.2
2017-08-09T03:08:28.565Z,84.7
2017-08-09T03:09:29.222Z,84.8
2017-08-09T03:10:29.879Z,84.7
2017-08-09T03:11:30.532Z,84.6
2017-08-09T03:12:31.436Z,85.1
2017-08-09T03:13:32.090Z,85.1
2017-08-09T03:14:32.744Z,85.1
2017-08-09T03:15:33.399Z,85.9
2017-08-09T03:16:34.052Z,85.7
2017-08-09T03:17:34.995Z,85.7
2017-08-09T03:18:35.648Z,85.5
2017-08-09T03:19:36.301Z,85.8
2017-08-09T03:20:36.957Z,85.5
2017-08-09T03:21:37.646Z,85.6
2017-08-09T03:22:38.551Z,85.8
2017-08-09T03:23:39.204Z,85.6
2017-08-09T03:24:39.895Z,86.1
2017-08-09T03:25:40.549Z,86.0
2017-08-09T03:26:41.202Z,85.6
2017-08-09T03:27:42.106Z,86.0
2017-08-09T03:28:42.763Z,85.8
2017-08-09T03:29:43.414Z,85.7
2017-08-09T03:30:44.069Z,85.7
2017-08-09T03:31:44.724Z,85.9
2017-08-09T03:32:45.681Z,86.4
2017-08-09T03:33:46.336Z,86.2
2017-08-09T03:34:46.991Z,86.6
2017-08-09T03:35:47.645Z,86.6
2017-08-09T03:36:48.300Z,86.7
2017-08-09T03:37:49.245Z,86.6
2017-08-09T03:38:49.935Z,86.5
2017-08-09T03:39:50.591Z,86.5
2017-08-09T03:40:51.247Z,86.7
2017-08-09T03:41:51.900Z,86.2
2017-08-09T03:42:52.805Z,86.6
2017-08-09T03:43:53.459Z,86.4
2017-08-09T03:44:54.114Z,86.6
2017-08-09T03:45:54.772Z,86.6
2017-08-09T03:46:55.424Z,87.0
2017-08-09T03:47:56.329Z,86.6
2017-08-09T03:48:56.985Z,86.5
2017-08-09T03:49:57.641Z,86.9
2017-08-09T03:50:58.347Z,86.5
2017-08-09T03:51:59.003Z,86.9
2017-08-09T03:52:59.908Z,86.9
2017-08-09T03:54:00.565Z,86.6
2017-08-09T03:55:01.220Z,87.2
2017-08-09T03:56:01.877Z,87.2
2017-08-09T03:57:02.539Z,86.9
2017-08-09T03:58:03.491Z,87.1
2017-08-09T03:59:04.146Z,87.3
2017-08-09T04:00:04.801Z,87.5
2017-08-09T04:01:05.459Z,87.4
2017-08-09T04:02:06.122Z,87.9
2017-08-09T04:03:07.076Z,87.7
2017-08-09T04:04:07.734Z,87.3
2017-08-09T04:05:08.391Z,87.5
2017-08-09T04:06:09.050Z,87.7
2017-08-09T04:07:09.707Z,87.7
2017-08-09T04:08:10.665Z,87.9
2017-08-09T04:09:11.322Z,88.2
2017-08-09T04:10:11.982Z,88.7
2017-08-09T04:11:12.640Z,88.7
2017-08-09T04:12:13.295Z,88.6
2017-08-09T04:13:14.204Z,88.5
2017-08-09T04:14:14.865Z,88.5
2017-08-09T04:15:15.521Z,88.7
2017-08-09T04:16:16.177Z,88.6
2017-08-09T04:17:16.834Z,88.6
2017-08-09T04:18:17.743Z,88.5
2017-08-09T04:19:18.402Z,88.9
2017-08-09T04:20:19.058Z,89.0
2017-08-09T04:21:19.714Z,89.3
2017-08-09T04:22:20.374Z,89.0
2017-08-09T04:23:21.283Z,89.3
2017-08-09T04:24:21.941Z,89.2
2017-08-09T04:25:22.598Z,89.3
2017-08-09T04:26:23.258Z,89.5
2017-08-09T04:27:23.917Z,89.0
2017-08-09T04:28:24.882Z,89.4
2017-08-09T04:29:25.540Z,89.3
2017-08-09T04:30:26.200Z,89.5
2017-08-09T04:31:26.858Z,89.5
2017-08-09T04:32:27.517Z,89.8
2017-08-09T04:33:28.427Z,89.6
2017-08-09T04:34:29.086Z,89.0
2017-08-09T04:35:29.744Z,89.3
2017-08-09T04:36:30.404Z,88.8
2017-08-09T04:37:31.062Z,88.8
2017-08-09T04:38:32.020Z,88.9
2017-08-09T04:39:32.680Z,88.9
2017-08-09T04:40:33.337Z,88.9
2017-08-09T04:41:33.997Z,89.1
2017-08-09T04:42:34.655Z,89.0
2017-08-09T04:43:35.614Z,88.8
2017-08-09T04:44:36.274Z,88.8
2017-08-09T04:45:36.932Z,88.5
2017-08-09T04:46:37.596Z,88.8
2017-08-09T04:47:38.250Z,88.5
2017-08-09T04:48:39.209Z,88.8
2017-08-09T04:49:39.880Z,88.3
2017-08-09T04:50:40.535Z,88.1
2017-08-09T04:51:41.194Z,88.2
2017-08-09T04:52:41.865Z,88.5
2017-08-09T04:53:42.812Z,88.4
2017-08-09T04:54:43.471Z,88.4
2017-08-09T04:55:44.129Z,88.1
2017-08-09T04:56:44.789Z,88.3
2017-08-09T04:57:45.448Z,88.5
2017-08-09T04:58:46.358Z,88.2
2017-08-09T04:59:47.018Z,88.1
2017-08-09T05:00:47.677Z,88.0
2017-08-09T05:01:48.343Z,88.0
2017-08-09T05:02:48.994Z,87.8
2017-08-09T05:03:49.954Z,87.6
2017-08-09T05:04:50.614Z,87.8
2017-08-09T05:05:51.273Z,87.8
2017-08-09T05:06:51.933Z,87.1
2017-08-09T05:07:52.591Z,87.1
2017-08-09T05:08:53.588Z,86.6
2017-08-09T05:09:54.246Z,87.3
2017-08-09T05:10:54.906Z,87.2
2017-08-09T05:11:55.564Z,86.6
2017-08-09T05:12:56.223Z,85.7
2017-08-09T05:13:57.131Z,85.9
2017-08-09T05:14:57.795Z,85.7
2017-08-09T05:15:58.452Z,86.0
2017-08-09T05:16:59.146Z,85.2
2017-08-09T05:17:59.804Z,85.8
2017-08-09T05:19:00.724Z,86.0
2017-08-09T05:20:01.370Z,84.9
2017-08-09T05:21:02.029Z,85.4
2017-08-09T05:22:02.690Z,84.7
2017-08-09T05:23:03.359Z,84.6
2017-08-09T05:24:04.309Z,84.3
2017-08-09T05:25:04.966Z,84.0
2017-08-09T05:26:05.626Z,84.0
2017-08-09T05:27:06.286Z,83.8
2017-08-09T05:28:06.948Z,84.0
2017-08-09T05:29:07.857Z,83.2
2017-08-09T05:30:08.519Z,82.9
2017-08-09T05:31:09.215Z,83.0
2017-08-09T05:32:09.875Z,83.0
2017-08-09T05:33:10.534Z,82.7
2017-08-09T05:34:11.446Z,82.4
2017-08-09T05:35:12.105Z,81.6
2017-08-09T05:36:12.766Z,81.1
2017-08-09T05:37:13.426Z,81.0
2017-08-09T05:38:14.086Z,80.7
2017-08-09T05:39:14.996Z,82.0
2017-08-09T05:40:15.661Z,80.5
2017-08-09T05:41:16.321Z,79.7
2017-08-09T05:42:16.980Z,79.6
2017-08-09T05:43:17.642Z,79.8
2017-08-09T05:44:18.604Z,80.6
2017-08-09T05:45:19.265Z,79.9
2017-08-09T05:46:19.925Z,80.1
2017-08-09T05:47:20.588Z,80.5
2017-08-09T05:48:21.287Z,78.7
2017-08-09T05:49:22.198Z,79.8
2017-08-09T05:50:22.860Z,79.1
2017-08-09T05:51:23.523Z,80.1
2017-08-09T05:52:24.187Z,79.9
2017-08-09T05:53:24.849Z,77.2
2017-08-09T05:54:25.810Z,75.6
2017-08-09T05:55:26.471Z,77.1
2017-08-09T05:56:27.130Z,75.9
2017-08-09T05:57:27.794Z,76.1
2017-08-09T05:58:28.493Z,74.4
2017-08-09T05:59:29.490Z,73.5
2017-08-09T06:00:30.151Z,74.5
2017-08-09T06:01:30.816Z,75.3
2017-08-09T06:02:31.473Z,74.0
2017-08-09T06:03:32.136Z,74.4
2017-08-09T06:04:33.048Z,74.2
2017-08-09T06:05:33.709Z,73.1
2017-08-09T06:06:34.409Z,73.0
2017-08-09T06:07:35.105Z,72.5
2017-08-09T06:08:35.765Z,70.5
2017-08-09T06:09:36.679Z,71.1
2017-08-09T06:10:37.339Z,71.0
2017-08-09T06:11:38.036Z,70.2
2017-08-09T06:12:38.734Z,69.0
2017-08-09T06:13:39.398Z,68.6
2017-08-09T06:14:40.309Z,69.3
2017-08-09T06:15:40.972Z,69.7
2017-08-09T06:16:41.634Z,69.5
2017-08-09T06:17:42.333Z,65.8
2017-08-09T06:18:42.997Z,68.0
2017-08-09T06:19:43.957Z,67.0
2017-08-09T06:20:44.620Z,68.1
2017-08-09T06:21:45.280Z,68.8
2017-08-09T06:22:45.943Z,68.4
2017-08-09T06:23:46.604Z,65.9
2017-08-09T06:24:47.615Z,66.4
2017-08-09T06:25:48.279Z,66.8
2017-08-09T06:26:48.941Z,66.5
2017-08-09T06:27:49.640Z,67.6
2017-08-09T06:28:50.304Z,66.7
2017-08-09T06:29:51.267Z,68.5
2017-08-09T06:30:51.929Z,67.6
2017-08-09T06:31:52.593Z,67.7
2017-08-09T06:32:53.256Z,67.4
2017-08-09T06:33:53.919Z,67.7
2017-08-09T06:34:54.920Z,67.6
2017-08-09T06:35:55.583Z,67.0
2017-08-09T06:36:56.246Z,66.7
2017-08-09T06:37:56.908Z,66.6
2017-08-09T06:38:57.572Z,66.2
2017-08-09T06:39:58.487Z,65.7
2017-08-09T06:40:59.150Z,63.4
2017-08-09T06:41:59.811Z,62.7
2017-08-09T06:43:00.473Z,63.4
2017-08-09T06:44:01.136Z,66.2
2017-08-09T06:45:02.049Z,64.1
2017-08-09T06:46:02.711Z,64.6
2017-08-09T06:47:03.412Z,66.6
2017-08-09T06:48:04.075Z,66.9
2017-08-09T06:49:04.738Z,67.0
2017-08-09T06:50:05.649Z,65.5
2017-08-09T06:51:06.312Z,63.4
2017-08-09T06:52:06.973Z,62.9
2017-08-09T06:53:07.636Z,61.8
2017-08-09T06:54:08.298Z,62.7
2017-08-09T06:55:09.210Z,62.9
2017-08-09T06:56:09.875Z,64.7
2017-08-09T06:57:10.538Z,64.0
2017-08-09T06:58:11.201Z,63.7
2017-08-09T06:59:11.865Z,64.7
2017-08-09T07:00:12.812Z,65.1
2017-08-09T07:01:13.475Z,66.4
2017-08-09T07:02:14.138Z,65.5
2017-08-09T07:03:14.802Z,65.6
2017-08-09T07:04:15.463Z,65.7
2017-08-09T07:05:16.426Z,67.8
2017-08-09T07:06:17.089Z,66.8
2017-08-09T07:07:17.751Z,65.9
2017-08-09T07:08:18.451Z,61.1
2017-08-09T07:09:19.113Z,64.0
2017-08-09T07:10:20.022Z,65.7
2017-08-09T07:11:20.685Z,61.8
2017-08-09T07:12:21.349Z,62.7
2017-08-09T07:13:22.013Z,63.0
2017-08-09T07:14:22.676Z,63.3
2017-08-09T07:15:23.588Z,61.8
2017-08-09T07:16:24.250Z,63.8
2017-08-09T07:17:24.916Z,61.2
2017-08-09T07:18:25.620Z,59.8
2017-08-09T07:19:26.274Z,58.4
2017-08-09T07:20:27.238Z,59.3
2017-08-09T07:21:27.900Z,58.0
2017-08-09T07:22:28.562Z,63.1
2017-08-09T07:23:29.226Z,62.8
2017-08-09T07:24:29.889Z,60.3
2017-08-09T07:25:30.803Z,60.2
2017-08-09T07:26:31.463Z,58.2
2017-08-09T07:27:32.127Z,58.1
2017-08-09T07:28:32.790Z,59.6
2017-08-09T07:29:33.452Z,58.6
2017-08-09T07:30:34.362Z,60.6
2017-08-09T07:31:35.024Z,59.4
2017-08-09T07:32:35.705Z,58.1
2017-08-09T07:33:36.352Z,60.7
2017-08-09T07:34:37.014Z,60.0
2017-08-09T07:35:37.929Z,60.0
2017-08-09T07:36:38.590Z,60.8
2017-08-09T07:37:39.253Z,61.2
2017-08-09T07:38:39.919Z,61.2
2017-08-09T07:39:40.579Z,61.7
2017-08-09T07:40:41.490Z,63.0
2017-08-09T07:41:42.151Z,61.6
2017-08-09T07:42:42.816Z,61.6
2017-08-09T07:43:43.475Z,61.2
2017-08-09T07:44:44.173Z,60.9
2017-08-09T07:45:45.085Z,61.2
2017-08-09T07:46:45.750Z,61.1
2017-08-09T07:47:46.410Z,59.6
2017-08-09T07:48:47.077Z,59.3
2017-08-09T07:49:47.752Z,60.4
2017-08-09T07:50:48.669Z,59.0
2017-08-09T07:51:49.356Z,60.9
2017-08-09T07:52:50.007Z,60.4
2017-08-09T07:53:50.672Z,60.1
2017-08-09T07:54:51.356Z,60.3
2017-08-09T07:55:52.300Z,57.9
2017-08-09T07:56:52.962Z,59.6
2017-08-09T07:57:53.623Z,58.1
2017-08-09T07:58:54.285Z,58.6
2017-08-09T07:59:54.957Z,57.9
2017-08-09T08:00:55.871Z,57.9
2017-08-09T08:01:56.539Z,57.0
2017-08-09T08:02:57.202Z,57.3
2017-08-09T08:03:57.866Z,58.3
2017-08-09T08:04:58.564Z,58.0
2017-08-09T08:05:59.479Z,58.0
2017-08-09T08:07:00.144Z,59.6
2017-08-09T08:08:00.807Z,58.7
2017-08-09T08:09:01.471Z,58.7
2017-08-09T08:10:02.130Z,57.3
2017-08-09T08:11:03.043Z,58.0
2017-08-09T08:12:03.708Z,58.8
2017-08-09T08:13:04.370Z,53.9
2017-08-09T08:14:05.032Z,55.4
2017-08-09T08:15:05.701Z,56.8
2017-08-09T08:16:06.665Z,55.5
2017-08-09T08:17:07.332Z,54.0
2017-08-09T08:18:08.032Z,56.7
2017-08-09T08:19:08.694Z,55.5
2017-08-09T08:20:09.357Z,57.8
2017-08-09T08:21:10.269Z,58.0
2017-08-09T08:22:10.930Z,56.6
2017-08-09T08:23:11.596Z,56.9
2017-08-09T08:24:12.258Z,56.1
2017-08-09T08:25:12.921Z,54.4
2017-08-09T08:26:13.884Z,55.3
2017-08-09T08:27:14.548Z,54.1
2017-08-09T08:28:15.220Z,53.4
2017-08-09T08:29:15.881Z,53.8
2017-08-09T08:30:16.547Z,55.8
2017-08-09T08:31:17.461Z,53.0
2017-08-09T08:32:18.126Z,54.4
2017-08-09T08:33:18.839Z,54.0
2017-08-09T08:34:19.509Z,55.4
2017-08-09T08:35:20.166Z,54.8
2017-08-09T08:36:21.130Z,55.2
2017-08-09T08:37:21.795Z,57.1
2017-08-09T08:38:22.458Z,53.1
2017-08-09T08:39:23.122Z,53.7
2017-08-09T08:40:23.788Z,55.5
2017-08-09T08:41:24.702Z,54.4
2017-08-09T08:42:25.368Z,51.2
2017-08-09T08:43:26.029Z,51.5
2017-08-09T08:44:26.727Z,51.7
2017-08-09T08:45:27.391Z,54.6
2017-08-09T08:46:28.305Z,53.9
2017-08-09T08:47:28.968Z,53.2
2017-08-09T08:48:29.630Z,54.9
2017-08-09T08:49:30.297Z,51.8
2017-08-09T08:50:30.960Z,49.6
2017-08-09T08:51:31.874Z,50.2
2017-08-09T08:52:32.538Z,48.5
2017-08-09T08:53:33.202Z,50.5
2017-08-09T08:54:33.863Z,49.9
2017-08-09T08:55:34.528Z,49.6
2017-08-09T08:56:35.442Z,50.4
2017-08-09T08:57:36.106Z,47.3
2017-08-09T08:58:36.769Z,50.4
2017-08-09T08:59:37.433Z,49.0
2017-08-09T09:00:38.096Z,48.1
2017-08-09T09:01:39.058Z,46.7
2017-08-09T09:02:39.722Z,48.6
2017-08-09T09:03:40.386Z,46.6
2017-08-09T09:04:41.049Z,47.4
2017-08-09T09:05:41.713Z,46.2
2017-08-09T09:06:42.627Z,49.3
2017-08-09T09:07:43.292Z,50.0
2017-08-09T09:08:43.958Z,47.9
2017-08-09T09:09:44.620Z,44.9
2017-08-09T09:10:45.282Z,46.2
2017-08-09T09:11:46.247Z,49.0
2017-08-09T09:12:46.949Z,46.3
2017-08-09T09:13:47.613Z,47.3
2017-08-09T09:14:48.275Z,48.0
2017-08-09T09:15:48.937Z,46.7
2017-08-09T09:16:49.853Z,46.0
2017-08-09T09:17:50.518Z,44.4
2017-08-09T09:18:51.182Z,44.9
2017-08-09T09:19:51.845Z,45.3
2017-08-09T09:20:52.509Z,44.8
2017-08-09T09:21:53.423Z,46.1
2017-08-09T09:22:54.088Z,43.7
2017-08-09T09:23:54.754Z,42.5
2017-08-09T09:24:55.418Z,43.0
2017-08-09T09:25:56.084Z,41.6
2017-08-09T09:26:56.999Z,43.5
2017-08-09T09:27:57.663Z,44.0
2017-08-09T09:28:58.329Z,41.6
2017-08-09T09:29:58.992Z,41.9
2017-08-09T09:30:59.655Z,39.3
2017-08-09T09:32:00.571Z,40.1
2017-08-09T09:33:01.236Z,38.3
2017-08-09T09:34:01.903Z,38.6
2017-08-09T09:35:02.569Z,39.6
2017-08-09T09:36:03.270Z,41.8
2017-08-09T09:37:04.188Z,40.3
2017-08-09T09:38:04.856Z,37.0
2017-08-09T09:39:05.524Z,37.3
2017-08-09T09:40:06.191Z,37.6
2017-08-09T09:41:06.859Z,35.4
2017-08-09T09:42:07.777Z,36.3
2017-08-09T09:43:08.446Z,34.9
2017-08-09T09:44:09.116Z,33.5
2017-08-09T09:45:09.786Z,35.4
2017-08-09T09:46:10.458Z,34.8
2017-08-09T09:47:11.379Z,33.8
2017-08-09T09:48:12.051Z,33.3
2017-08-09T09:49:12.722Z,33.0
2017-08-09T09:50:13.395Z,31.5
2017-08-09T09:51:14.067Z,32.6
2017-08-09T09:52:15.046Z,34.0
2017-08-09T09:53:15.718Z,33.5
2017-08-09T09:54:16.388Z,33.9
2017-08-09T09:55:17.061Z,31.6
2017-08-09T09:56:17.732Z,31.4
2017-08-09T09:57:18.654Z,30.8
2017-08-09T09:58:19.362Z,34.0
2017-08-09T09:59:20.035Z,32.4
2017-08-09T10:00:20.707Z,32.9
2017-08-09T10:01:21.378Z,31.9
2017-08-09T10:02:22.302Z,31.7
2017-08-09T10:03:22.980Z,28.9
2017-08-09T10:04:23.648Z,30.6
2017-08-09T10:05:24.318Z,29.8
2017-08-09T10:06:24.991Z,27.0
2017-08-09T10:07:25.964Z,26.1
2017-08-09T10:08:26.637Z,26.5
2017-08-09T10:09:27.309Z,25.8
2017-08-09T10:10:28.019Z,30.5
2017-08-09T10:11:28.692Z,26.9
2017-08-09T10:12:29.618Z,28.1
2017-08-09T10:13:30.287Z,26.8
2017-08-09T10:14:30.958Z,27.3
2017-08-09T10:15:31.631Z,23.8
2017-08-09T10:16:32.306Z,24.3
2017-08-09T10:17:33.231Z,25.1
2017-08-09T10:18:33.906Z,24.5
2017-08-09T10:19:34.578Z,23.9
2017-08-09T10:20:35.254Z,24.0
2017-08-09T10:21:35.928Z,21.5
2017-08-09T10:22:36.850Z,22.3
2017-08-09T10:23:37.527Z,23.6
2017-08-09T10:24:38.203Z,22.2
2017-08-09T10:25:38.875Z,20.9
2017-08-09T10:26:39.554Z,21.9
2017-08-09T10:27:40.524Z,19.6
2017-08-09T10:28:41.238Z,21.1
2017-08-09T10:29:41.913Z,21.2
2017-08-09T10:30:42.588Z,20.1
2017-08-09T10:31:43.266Z,18.5
2017-08-09T10:32:44.198Z,18.5
2017-08-09T10:33:44.867Z,17.0
2017-08-09T10:34:45.543Z,18.0
2017-08-09T10:35:46.218Z,17.6
2017-08-09T10:36:46.893Z,20.2
2017-08-09T10:37:47.819Z,17.5
2017-08-09T10:38:48.497Z,18.1
2017-08-09T10:39:49.205Z,20.0
2017-08-09T10:40:49.882Z,17.6
2017-08-09T10:41:50.559Z,17.9
2017-08-09T10:42:51.486Z,17.0
2017-08-09T10:43:52.162Z,17.9
2017-08-09T10:44:52.838Z,15.0
2017-08-09T10:45:53.514Z,15.4
2017-08-09T10:46:54.189Z,17.6
2017-08-09T10:47:55.115Z,17.5
2017-08-09T10:48:55.800Z,16.6
2017-08-09T10:49:56.475Z,15.0
2017-08-09T10:50:57.151Z,16.3
2017-08-09T10:51:57.828Z,17.6
2017-08-09T10:52:58.804Z,17.8
2017-08-09T10:53:59.480Z,18.6
2017-08-09T10:55:00.156Z,18.1
2017-08-09T10:56:00.850Z,18.0
2017-08-09T10:57:01.510Z,17.4
2017-08-09T10:58:02.474Z,17.7
2017-08-09T10:59:03.149Z,18.3
2017-08-09T11:00:03.825Z,15.8
2017-08-09T11:01:04.502Z,15.8
2017-08-09T11:02:05.176Z,15.0
2017-08-09T11:03:06.102Z,16.1
2017-08-09T11:04:06.777Z,16.2
2017-08-09T11:05:07.452Z,13.7
2017-08-09T11:06:08.129Z,14.1
2017-08-09T11:07:08.807Z,13.8
2017-08-09T11:08:09.767Z,13.2
2017-08-09T11:09:10.446Z,13.9
2017-08-09T11:10:11.123Z,13.7
2017-08-09T11:11:11.800Z,13.3
2017-08-09T11:12:12.474Z,13.6
2017-08-09T11:13:13.399Z,13.1
2017-08-09T11:14:14.077Z,14.2
2017-08-09T11:15:14.752Z,14.1
2017-08-09T11:16:15.465Z,15.1
2017-08-09T11:17:16.147Z,14.6
2017-08-09T11:18:17.071Z,14.7
2017-08-09T11:19:17.746Z,13.1
2017-08-09T11:20:18.424Z,13.6
2017-08-09T11:21:19.137Z,13.8
2017-08-09T11:22:19.834Z,12.0
2017-08-09T11:23:20.788Z,11.5
2017-08-09T11:24:21.465Z,12.0
2017-08-09T11:25:22.142Z,10.9
2017-08-09T11:26:22.819Z,10.8
2017-08-09T11:27:23.514Z,10.5
2017-08-09T11:28:24.470Z,10.2
2017-08-09T11:29:25.143Z,8.9
2017-08-09T11:30:25.816Z,8.9
2017-08-09T11:31:26.488Z,10.7
2017-08-09T11:32:27.165Z,10.0
2017-08-09T11:33:28.137Z,8.5
2017-08-09T11:34:28.813Z,10.3
2017-08-09T11:35:29.487Z,8.9
2017-08-09T11:36:30.160Z,10.0
2017-08-09T11:37:30.836Z,9.9
2017-08-09T11:38:31.796Z,10.2
2017-08-09T11:39:32.469Z,9.3
2017-08-09T11:40:33.145Z,9.4
2017-08-09T11:41:33.819Z,9.7
2017-08-09T11:42:34.497Z,9.7
2017-08-09T11:43:35.475Z,10.3
2017-08-09T11:44:36.146Z,11.3
2017-08-09T11:45:36.822Z,9.9
2017-08-09T11:46:37.499Z,10.3
2017-08-09T11:47:38.210Z,8.4
2017-08-09T11:48:39.191Z,8.7
2017-08-09T11:49:39.869Z,9.0
2017-08-09T11:50:40.540Z,9.3
2017-08-09T11:51:41.215Z,9.3
2017-08-09T11:52:41.887Z,9.7
2017-08-09T11:53:42.816Z,8.9
2017-08-09T11:54:43.489Z,7.7
2017-08-09T11:55:44.163Z,8.2
2017-08-09T11:56:44.873Z,7.6
2017-08-09T11:57:45.549Z,8.1
2017-08-09T11:58:46.523Z,8.9
2017-08-09T11:59:47.199Z,7.4
2017-08-09T12:00:47.872Z,7.1
2017-08-09T12:01:48.545Z,7.1
2017-08-09T12:02:49.221Z,8.3
2017-08-09T12:03:50.150Z,6.5
2017-08-09T12:04:50.825Z,6.4
2017-08-09T12:05:51.533Z,6.5
2017-08-09T12:06:52.204Z,6.3
2017-08-09T12:07:52.878Z,6.9
2017-08-09T12:08:53.940Z,7.4
2017-08-09T12:09:54.652Z,7.3
2017-08-09T12:10:55.325Z,6.8
2017-08-09T12:11:55.999Z,6.9
2017-08-09T12:12:56.674Z,6.1
2017-08-09T12:13:57.634Z,5.8
2017-08-09T12:14:58.308Z,7.7
2017-08-09T12:15:58.982Z,6.1
2017-08-09T12:16:59.694Z,6.9
2017-08-09T12:18:00.366Z,7.9
2017-08-09T12:19:01.289Z,7.1
2017-08-09T12:20:01.965Z,7.2
2017-08-09T12:21:02.638Z,6.9
2017-08-09T12:22:03.314Z,6.6
2017-08-09T12:23:03.987Z,6.3
2017-08-09T12:24:04.963Z,6.1
2017-08-09T12:25:05.700Z,5.6
2017-08-09T12:26:06.386Z,5.4
2017-08-09T12:27:07.060Z,5.5
2017-08-09T12:28:07.734Z,5.8
2017-08-09T12:29:08.708Z,5.7
2017-08-09T12:30:09.382Z,6.1
2017-08-09T12:31:10.058Z,5.4
2017-08-09T12:32:10.770Z,5.6
2017-08-09T12:33:11.444Z,5.4
2017-08-09T12:34:12.368Z,5.0
2017-08-09T12:35:13.043Z,5.0
2017-08-09T12:36:13.720Z,5.3
2017-08-09T12:37:14.396Z,5.2
2017-08-09T12:38:15.074Z,6.2
2017-08-09T12:39:15.999Z,5.4
2017-08-09T12:40:16.711Z,3.6
2017-08-09T12:41:17.385Z,5.3
2017-08-09T12:42:18.058Z,5.8
2017-08-09T12:43:18.736Z,6.5
2017-08-09T12:44:19.661Z,7.3
2017-08-09T12:45:20.337Z,6.2
2017-08-09T12:46:21.047Z,6.1
2017-08-09T12:47:21.723Z,6.4
2017-08-09T12:48:22.399Z,7.2
2017-08-09T12:49:23.377Z,5.0
2017-08-09T12:50:24.050Z,5.4
2017-08-09T12:51:24.722Z,5.5
2017-08-09T12:52:25.397Z,9.2
2017-08-09T12:53:26.072Z,8.1
2017-08-09T12:54:26.995Z,8.8
2017-08-09T12:55:27.669Z,10.3
2017-08-09T12:56:28.342Z,11.0
2017-08-09T12:57:29.016Z,9.9
2017-08-09T12:58:29.689Z,8.7
2017-08-09T12:59:30.611Z,8.3
2017-08-09T13:00:31.283Z,8.9
2017-08-09T13:01:31.958Z,10.0
2017-08-09T13:02:32.632Z,10.2
2017-08-09T13:03:33.310Z,7.0
2017-08-09T13:04:34.269Z,8.1
2017-08-09T13:05:35.035Z,5.3
2017-08-09T13:06:35.740Z,4.9
2017-08-09T13:07:36.414Z,5.6
2017-08-09T13:08:37.089Z,3.7
2017-08-09T13:09:38.013Z,4.3
2017-08-09T13:10:38.688Z,4.1
2017-08-09T13:11:39.363Z,3.4
2017-08-09T13:12:40.037Z,2.4
2017-08-09T13:13:40.711Z,3.7
2017-08-09T13:14:41.685Z,4.7
2017-08-09T13:15:42.360Z,3.7
2017-08-09T13:16:43.034Z,4.8
2017-08-09T13:17:43.707Z,4.0
2017-08-09T13:18:44.381Z,7.5
2017-08-09T13:19:45.305Z,8.3
2017-08-09T13:20:45.980Z,8.1
2017-08-09T13:21:46.653Z,10.6
2017-08-09T13:22:47.325Z,11.7
2017-08-09T13:23:47.998Z,10.8
2017-08-09T13:24:48.920Z,13.3
2017-08-09T13:25:49.591Z,14.9
2017-08-09T13:26:50.268Z,13.6
2017-08-09T13:27:50.942Z,11.1
2017-08-09T13:28:51.617Z,8.5
2017-08-09T13:29:52.590Z,8.3
2017-08-09T13:30:53.262Z,7.0